Wetterdaten: Woche 19.03.18 - 25.03.18 (KW12)
Datum Zeit Temperatur Luftfeuchte Luftdruck Niederschlag Windrichtung Sonnenschein Solar Wind
19.03.2018 00:00 -3,4 C 94 % 1005,6 hPa 0,0 l/m O-NO 0,00 h 0 W/m 13,4 km/h (3 Bft)
19.03.2018 01:00 -3,4 C 93 % 1005,8 hPa 0,0 l/m O-NO 0,00 h 0 W/m 14,0 km/h (3 Bft)
19.03.2018 02:00 -3,4 C 93 % 1005,7 hPa 0,0 l/m O-NO 0,00 h 0 W/m 12,2 km/h (2 Bft)
19.03.2018 03:00 -3,5 C 93 % 1005,6 hPa 0,0 l/m NO 0,00 h 0 W/m 11,6 km/h (2 Bft)
19.03.2018 04:00 -3,7 C 92 % 1005,7 hPa 0,0 l/m O-NO 0,00 h 0 W/m 11,4 km/h (2 Bft)
19.03.2018 05:00 -3,8 C 92 % 1005,9 hPa 0,0 l/m O-NO 0,00 h 0 W/m 10,7 km/h (2 Bft)
19.03.2018 06:00 -3,8 C 92 % 1006,1 hPa 0,0 l/m O-NO 0,00 h 8 W/m 10,7 km/h (2 Bft)
19.03.2018 07:00 -3,8 C 93 % 1006,5 hPa 0,0 l/m O-NO 0,00 h 29 W/m 11,8 km/h (2 Bft)
19.03.2018 08:00 -3,6 C 93 % 1006,8 hPa 0,0 l/m O-NO 0,00 h 53 W/m 12,1 km/h (2 Bft)
19.03.2018 09:00 -3,5 C 92 % 1007,0 hPa 0,0 l/m O-NO 0,00 h 62 W/m 11,8 km/h (2 Bft)
19.03.2018 10:00 -3,4 C 93 % 1007,2 hPa 0,0 l/m O-NO 0,00 h 99 W/m 12,6 km/h (3 Bft)
19.03.2018 11:00 -2,8 C 92 % 1007,5 hPa 0,0 l/m NO 0,00 h 206 W/m 10,2 km/h (2 Bft)
19.03.2018 12:00 -2,4 C 89 % 1007,4 hPa 0,0 l/m O-NO 0,00 h 191 W/m 12,0 km/h (2 Bft)
19.03.2018 13:00 -2,2 C 88 % 1007,2 hPa 0,0 l/m O-NO 0,00 h 174 W/m 10,5 km/h (2 Bft)
19.03.2018 14:00 -1,9 C 86 % 1007,1 hPa 0,0 l/m O-NO 0,00 h 177 W/m 7,2 km/h (2 Bft)
19.03.2018 15:00 -1,8 C 85 % 1007,3 hPa 0,0 l/m O-NO 0,00 h 98 W/m 11,0 km/h (2 Bft)
19.03.2018 16:00 -1,7 C 84 % 1007,3 hPa 0,0 l/m O-NO 0,00 h 61 W/m 11,2 km/h (2 Bft)
19.03.2018 17:00 -1,9 C 85 % 1007,7 hPa 0,0 l/m O-NO 0,00 h 25 W/m 11,1 km/h (2 Bft)
19.03.2018 18:00 -2,2 C 86 % 1008,3 hPa 0,0 l/m O-NO 0,00 h 9 W/m 13,4 km/h (3 Bft)
19.03.2018 19:00 -2,5 C 88 % 1009,0 hPa 0,0 l/m O-NO 0,00 h 0 W/m 12,8 km/h (3 Bft)
19.03.2018 20:00 -2,8 C 89 % 1009,3 hPa 0,0 l/m O-NO 0,00 h 0 W/m 14,2 km/h (3 Bft)
19.03.2018 21:00 -3,0 C 90 % 1009,5 hPa 0,0 l/m O-NO 0,00 h 0 W/m 10,1 km/h (2 Bft)
19.03.2018 22:00 -3,2 C 90 % 1009,6 hPa 0,0 l/m NO 0,00 h 0 W/m 9,5 km/h (2 Bft)
19.03.2018 23:00 -3,5 C 90 % 1009,7 hPa 0,0 l/m NO 0,00 h 0 W/m 12,0 km/h (2 Bft)
20.03.2018 00:00 -3,7 C 89 % 1009,9 hPa 0,0 l/m O-NO 0,00 h 0 W/m 12,2 km/h (2 Bft)
20.03.2018 01:00 -3,9 C 88 % 1009,9 hPa 0,0 l/m O-NO 0,00 h 0 W/m 12,1 km/h (2 Bft)
20.03.2018 02:00 -4,0 C 89 % 1010,1 hPa 0,0 l/m O-NO 0,00 h 0 W/m 9,8 km/h (2 Bft)
20.03.2018 03:00 -4,1 C 89 % 1010,1 hPa 0,0 l/m O-NO 0,00 h 0 W/m 10,5 km/h (2 Bft)
20.03.2018 04:00 -4,3 C 88 % 1010,7 hPa 0,0 l/m O-NO 0,00 h 0 W/m 9,1 km/h (2 Bft)
20.03.2018 05:00 -4,5 C 84 % 1011,3 hPa 0,0 l/m O-NO 0,00 h 0 W/m 8,0 km/h (2 Bft)
20.03.2018 06:00 -4,5 C 82 % 1011,9 hPa 0,0 l/m O-NO 0,00 h 10 W/m 7,5 km/h (2 Bft)
20.03.2018 07:00 -4,2 C 81 % 1012,5 hPa 0,0 l/m NO 0,50 h 93 W/m 7,8 km/h (2 Bft)
20.03.2018 08:00 -3,5 C 78 % 1013,3 hPa 0,0 l/m O-NO 0,17 h 172 W/m 10,5 km/h (2 Bft)
20.03.2018 09:00 -3,1 C 76 % 1014,0 hPa 0,0 l/m O 0,33 h 230 W/m 12,0 km/h (2 Bft)
20.03.2018 10:00 -2,5 C 74 % 1014,4 hPa 0,0 l/m O-NO 0,08 h 272 W/m 11,7 km/h (2 Bft)
20.03.2018 11:00 -1,2 C 69 % 1014,6 hPa 0,0 l/m O 0,75 h 654 W/m 14,6 km/h (3 Bft)
20.03.2018 12:00 -0,0 C 65 % 1014,7 hPa 0,0 l/m O-NO 0,75 h 603 W/m 9,0 km/h (2 Bft)
20.03.2018 13:00 0,9 C 63 % 1014,8 hPa 0,0 l/m O-SO 0,67 h 539 W/m 8,9 km/h (2 Bft)
20.03.2018 14:00 1,0 C 62 % 1015,1 hPa 0,0 l/m S-SW 0,50 h 374 W/m 7,5 km/h (2 Bft)
20.03.2018 15:00 1,7 C 58 % 1015,3 hPa 0,0 l/m N-NO 0,50 h 329 W/m 7,9 km/h (2 Bft)
20.03.2018 16:00 1,3 C 62 % 1016,1 hPa 0,0 l/m O 0,00 h 82 W/m 11,1 km/h (2 Bft)
20.03.2018 17:00 -0,6 C 81 % 1017,3 hPa 0,0 l/m N 0,00 h 31 W/m 14,9 km/h (3 Bft)
20.03.2018 18:00 -1,0 C 83 % 1018,4 hPa 0,0 l/m N-NO 0,00 h 9 W/m 15,6 km/h (3 Bft)
20.03.2018 19:00 -1,6 C 87 % 1019,6 hPa 0,2 l/m N-NO 0,00 h 0 W/m 11,4 km/h (2 Bft)
20.03.2018 20:00 -1,9 C 90 % 1020,4 hPa 0,0 l/m N-NO 0,00 h 0 W/m 4,3 km/h (1 Bft)
20.03.2018 21:00 -1,9 C 91 % 1021,2 hPa 0,2 l/m N 0,00 h 0 W/m 1,9 km/h (1 Bft)
20.03.2018 22:00 -1,9 C 92 % 1021,5 hPa 0,2 l/m N 0,00 h 0 W/m 0,0 km/h (0 Bft)
20.03.2018 23:00 -1,9 C 93 % 1021,6 hPa 0,2 l/m N 0,00 h 0 W/m 0,0 km/h (0 Bft)
21.03.2018 00:00 -1,9 C 94 % 1021,8 hPa 0,0 l/m N-NO 0,00 h 0 W/m 0,8 km/h (0 Bft)
21.03.2018 01:00 -1,9 C 94 % 1022,0 hPa 0,0 l/m N-NO 0,00 h 0 W/m 3,6 km/h (1 Bft)
21.03.2018 02:00 -1,8 C 94 % 1022,2 hPa 0,0 l/m N-NO 0,00 h 0 W/m 11,7 km/h (2 Bft)
21.03.2018 03:00 -1,9 C 94 % 1022,3 hPa 0,0 l/m NO 0,00 h 0 W/m 14,8 km/h (3 Bft)
21.03.2018 04:00 -2,2 C 93 % 1022,6 hPa 0,0 l/m NO 0,00 h 0 W/m 13,2 km/h (3 Bft)
21.03.2018 05:00 -2,5 C 92 % 1022,9 hPa 0,0 l/m NO 0,00 h 0 W/m 12,5 km/h (3 Bft)
21.03.2018 06:00 -2,9 C 91 % 1023,5 hPa 0,0 l/m N-NO 0,00 h 12 W/m 11,7 km/h (2 Bft)
21.03.2018 07:00 -3,2 C 89 % 1024,3 hPa 0,0 l/m NO 0,25 h 95 W/m 11,1 km/h (2 Bft)
21.03.2018 08:00 -2,9 C 87 % 1024,9 hPa 0,0 l/m NO 0,92 h 354 W/m 15,2 km/h (3 Bft)
21.03.2018 09:00 -1,7 C 82 % 1025,3 hPa 0,0 l/m O-NO 1,00 h 485 W/m 18,1 km/h (3 Bft)
21.03.2018 10:00 -0,3 C 76 % 1025,6 hPa 0,0 l/m NO 0,92 h 565 W/m 16,9 km/h (3 Bft)
21.03.2018 11:00 0,8 C 71 % 1025,6 hPa 0,0 l/m NO 0,75 h 633 W/m 18,0 km/h (3 Bft)
21.03.2018 12:00 1,7 C 61 % 1025,5 hPa 0,0 l/m O-NO 0,50 h 515 W/m 17,0 km/h (3 Bft)
21.03.2018 13:00 2,2 C 57 % 1025,4 hPa 0,0 l/m O-NO 0,67 h 527 W/m 17,3 km/h (3 Bft)
21.03.2018 14:00 2,2 C 54 % 1025,3 hPa 0,0 l/m O-NO 0,25 h 301 W/m 15,0 km/h (3 Bft)
21.03.2018 15:00 2,1 C 52 % 1025,3 hPa 0,0 l/m O-NO 0,50 h 352 W/m 14,8 km/h (3 Bft)
21.03.2018 16:00 2,5 C 53 % 1025,4 hPa 0,0 l/m O-SO 0,58 h 225 W/m 14,8 km/h (3 Bft)
21.03.2018 17:00 1,7 C 55 % 1025,7 hPa 0,0 l/m O-SO 0,17 h 64 W/m 9,1 km/h (2 Bft)
21.03.2018 18:00 0,9 C 58 % 1026,1 hPa 0,0 l/m O-SO 0,08 h 14 W/m 5,3 km/h (1 Bft)
21.03.2018 19:00 -0,2 C 66 % 1026,1 hPa 0,0 l/m N 0,00 h 0 W/m 0,0 km/h (0 Bft)
21.03.2018 20:00 -1,5 C 71 % 1026,3 hPa 0,0 l/m N 0,00 h 0 W/m 0,0 km/h (0 Bft)
21.03.2018 21:00 -2,5 C 76 % 1026,0 hPa 0,0 l/m N 0,00 h 0 W/m 0,0 km/h (0 Bft)
21.03.2018 22:00 -3,4 C 79 % 1025,8 hPa 0,0 l/m N 0,00 h 0 W/m 0,0 km/h (0 Bft)
21.03.2018 23:00 -4,0 C 81 % 1025,5 hPa 0,0 l/m N 0,00 h 0 W/m 0,0 km/h (0 Bft)
22.03.2018 00:00 -4,6 C 83 % 1025,2 hPa 0,0 l/m N 0,00 h 0 W/m 0,0 km/h (0 Bft)
22.03.2018 01:00 -5,0 C 85 % 1024,8 hPa 0,0 l/m N 0,00 h 0 W/m 0,0 km/h (0 Bft)
22.03.2018 02:00 -5,4 C 86 % 1024,2 hPa 0,0 l/m N 0,00 h 0 W/m 0,0 km/h (0 Bft)
22.03.2018 03:00 -6,0 C 86 % 1023,6 hPa 0,0 l/m N 0,00 h 0 W/m 0,0 km/h (0 Bft)
22.03.2018 04:00 -6,5 C 87 % 1023,2 hPa 0,0 l/m N 0,00 h 0 W/m 0,0 km/h (0 Bft)
22.03.2018 05:00 -6,9 C 88 % 1022,6 hPa 0,0 l/m N 0,00 h 0 W/m 0,0 km/h (0 Bft)
22.03.2018 06:00 -7,1 C 89 % 1022,4 hPa 0,0 l/m N 0,00 h 14 W/m 0,3 km/h (0 Bft)
22.03.2018 07:00 -6,5 C 92 % 1022,2 hPa 0,0 l/m N 0,67 h 131 W/m 0,0 km/h (0 Bft)
22.03.2018 08:00 -3,3 C 90 % 1021,8 hPa 0,0 l/m S-SW 1,00 h 328 W/m 7,9 km/h (2 Bft)
22.03.2018 09:00 -0,6 C 83 % 1021,5 hPa 0,0 l/m S-SW 0,83 h 387 W/m 9,4 km/h (2 Bft)
22.03.2018 10:00 0,8 C 76 % 1020,7 hPa 0,0 l/m S-SW 0,92 h 353 W/m 11,7 km/h (2 Bft)
22.03.2018 11:00 1,7 C 77 % 1019,8 hPa 0,0 l/m S-SW 0,67 h 466 W/m 15,6 km/h (3 Bft)
22.03.2018 12:00 3,1 C 62 % 1018,8 hPa 0,0 l/m SW 0,83 h 427 W/m 16,0 km/h (3 Bft)
22.03.2018 13:00 3,2 C 56 % 1017,8 hPa 0,0 l/m SW 0,42 h 352 W/m 16,9 km/h (3 Bft)
22.03.2018 14:00 3,4 C 55 % 1017,2 hPa 0,0 l/m W-SW 0,08 h 254 W/m 18,5 km/h (3 Bft)
22.03.2018 15:00 2,8 C 60 % 1016,7 hPa 0,0 l/m SW 0,00 h 123 W/m 20,4 km/h (4 Bft)
22.03.2018 16:00 2,7 C 62 % 1016,2 hPa 0,0 l/m W-SW 0,00 h 97 W/m 15,8 km/h (3 Bft)
22.03.2018 17:00 2,1 C 69 % 1015,8 hPa 0,0 l/m W 0,00 h 35 W/m 16,8 km/h (3 Bft)
22.03.2018 18:00 1,4 C 76 % 1015,2 hPa 0,0 l/m SW 0,00 h 7 W/m 13,0 km/h (3 Bft)
22.03.2018 19:00 0,9 C 81 % 1015,3 hPa 0,0 l/m W-SW 0,00 h 0 W/m 14,0 km/h (3 Bft)
22.03.2018 20:00 0,0 C 89 % 1015,2 hPa 0,2 l/m SW 0,00 h 0 W/m 8,1 km/h (2 Bft)
22.03.2018 21:00 -0,2 C 92 % 1014,9 hPa 0,8 l/m SW 0,00 h 0 W/m 8,7 km/h (2 Bft)
22.03.2018 22:00 -0,3 C 94 % 1014,5 hPa 0,2 l/m SW 0,00 h 0 W/m 9,5 km/h (2 Bft)
22.03.2018 23:00 -0,2 C 94 % 1013,8 hPa 0,0 l/m SW 0,00 h 0 W/m 8,7 km/h (2 Bft)
23.03.2018 00:00 0,1 C 94 % 1013,1 hPa 0,0 l/m SW 0,00 h 0 W/m 10,1 km/h (2 Bft)
23.03.2018 01:00 0,2 C 94 % 1012,6 hPa 0,0 l/m SW 0,00 h 0 W/m 10,7 km/h (2 Bft)
23.03.2018 02:00 0,0 C 94 % 1012,3 hPa 0,0 l/m SW 0,00 h 0 W/m 2,7 km/h (1 Bft)
23.03.2018 03:00 -0,1 C 95 % 1011,8 hPa 0,0 l/m SW 0,00 h 0 W/m 4,0 km/h (1 Bft)
23.03.2018 04:00 -0,0 C 95 % 1011,4 hPa 0,0 l/m SW 0,00 h 0 W/m 0,7 km/h (0 Bft)
23.03.2018 05:00 -0,0 C 96 % 1011,0 hPa 0,0 l/m N 0,00 h 0 W/m 0,0 km/h (0 Bft)
23.03.2018 06:00 0,0 C 96 % 1010,8 hPa 0,0 l/m SW 0,00 h 6 W/m 1,2 km/h (1 Bft)
23.03.2018 07:00 0,2 C 96 % 1010,7 hPa 0,0 l/m SW 0,00 h 17 W/m 3,7 km/h (1 Bft)
23.03.2018 08:00 0,5 C 97 % 1010,4 hPa 0,0 l/m SW 0,00 h 81 W/m 6,3 km/h (2 Bft)
23.03.2018 09:00 1,2 C 97 % 1010,0 hPa 0,2 l/m S-SW 0,00 h 204 W/m 9,8 km/h (2 Bft)
23.03.2018 10:00 2,3 C 96 % 1009,5 hPa 0,0 l/m S-SW 0,00 h 240 W/m 8,9 km/h (2 Bft)
23.03.2018 11:00 3,4 C 92 % 1008,8 hPa 0,0 l/m SW 0,08 h 295 W/m 14,2 km/h (3 Bft)
23.03.2018 12:00 3,9 C 92 % 1008,3 hPa 0,0 l/m S-SW 0,17 h 324 W/m 14,0 km/h (3 Bft)
23.03.2018 13:00 4,7 C 89 % 1007,5 hPa 0,0 l/m S-SW 0,50 h 338 W/m 13,4 km/h (3 Bft)
23.03.2018 14:00 5,0 C 87 % 1006,6 hPa 0,0 l/m S-SW 0,00 h 209 W/m 11,3 km/h (2 Bft)
23.03.2018 15:00 5,4 C 84 % 1005,9 hPa 0,0 l/m S-SW 0,00 h 155 W/m 9,4 km/h (2 Bft)
23.03.2018 16:00 5,2 C 83 % 1005,2 hPa 0,0 l/m S-SW 0,00 h 60 W/m 4,9 km/h (1 Bft)
23.03.2018 17:00 4,9 C 83 % 1004,6 hPa 0,0 l/m N 0,00 h 33 W/m 0,4 km/h (0 Bft)
23.03.2018 18:00 4,3 C 85 % 1004,4 hPa 0,0 l/m N 0,00 h 6 W/m 0,0 km/h (0 Bft)
23.03.2018 19:00 3,2 C 88 % 1004,3 hPa 0,0 l/m N 0,00 h 0 W/m 0,0 km/h (0 Bft)
23.03.2018 20:00 2,6 C 89 % 1004,1 hPa 0,0 l/m N 0,00 h 0 W/m 0,0 km/h (0 Bft)
23.03.2018 21:00 2,2 C 90 % 1003,7 hPa 0,0 l/m N 0,00 h 0 W/m 0,0 km/h (0 Bft)
23.03.2018 22:00 2,0 C 91 % 1003,4 hPa 0,0 l/m N 0,00 h 0 W/m 0,0 km/h (0 Bft)
23.03.2018 23:00 1,7 C 91 % 1002,7 hPa 0,0 l/m N 0,00 h 0 W/m 0,0 km/h (0 Bft)
24.03.2018 00:00 0,6 C 90 % 1002,1 hPa 0,0 l/m N 0,00 h 0 W/m 0,0 km/h (0 Bft)
24.03.2018 01:00 -0,4 C 91 % 1001,4 hPa 0,0 l/m N 0,00 h 0 W/m 0,0 km/h (0 Bft)
24.03.2018 02:00 -1,0 C 92 % 1000,5 hPa 0,0 l/m N 0,00 h 0 W/m 0,0 km/h (0 Bft)
24.03.2018 03:00 -1,4 C 92 % 999,8 hPa 0,0 l/m S-SW 0,00 h 0 W/m 0,0 km/h (0 Bft)
24.03.2018 04:00 -1,8 C 93 % 999,3 hPa 0,0 l/m N 0,00 h 0 W/m 1,2 km/h (1 Bft)
24.03.2018 05:00 -2,2 C 93 % 998,9 hPa 0,0 l/m N 0,00 h 0 W/m 0,0 km/h (0 Bft)
24.03.2018 06:00 -2,2 C 94 % 998,8 hPa 0,0 l/m N 0,08 h 21 W/m 0,0 km/h (0 Bft)
24.03.2018 07:00 -0,8 C 96 % 999,0 hPa 0,0 l/m SO 0,83 h 140 W/m 4,4 km/h (1 Bft)
24.03.2018 08:00 0,9 C 93 % 999,2 hPa 0,0 l/m NO 1,00 h 343 W/m 10,5 km/h (2 Bft)
24.03.2018 09:00 3,1 C 83 % 999,5 hPa 0,0 l/m NO 1,00 h 500 W/m 8,3 km/h (2 Bft)
24.03.2018 10:00 6,0 C 65 % 999,4 hPa 0,0 l/m O-SO 0,92 h 578 W/m 19,0 km/h (3 Bft)
24.03.2018 11:00 7,8 C 56 % 999,5 hPa 0,0 l/m O-SO 1,00 h 701 W/m 17,8 km/h (3 Bft)
24.03.2018 12:00 9,3 C 50 % 999,4 hPa 0,0 l/m O-SO 1,00 h 717 W/m 14,6 km/h (3 Bft)
24.03.2018 13:00 10,4 C 47 % 999,3 hPa 0,0 l/m O 1,00 h 682 W/m 12,6 km/h (3 Bft)
24.03.2018 14:00 11,1 C 47 % 999,1 hPa 0,0 l/m O-NO 1,00 h 595 W/m 12,8 km/h (3 Bft)
24.03.2018 15:00 11,4 C 46 % 999,0 hPa 0,0 l/m O 1,00 h 467 W/m 14,8 km/h (3 Bft)
24.03.2018 16:00 11,3 C 46 % 999,1 hPa 0,0 l/m O-NO 1,00 h 302 W/m 13,3 km/h (3 Bft)
24.03.2018 17:00 10,4 C 47 % 999,3 hPa 0,0 l/m O 0,58 h 111 W/m 9,8 km/h (2 Bft)
24.03.2018 18:00 8,5 C 54 % 999,9 hPa 0,0 l/m O 0,08 h 17 W/m 3,3 km/h (1 Bft)
24.03.2018 19:00 6,9 C 61 % 1000,5 hPa 0,0 l/m N 0,00 h 0 W/m 0,0 km/h (0 Bft)
24.03.2018 20:00 4,7 C 68 % 1001,0 hPa 0,0 l/m N 0,00 h 0 W/m 0,0 km/h (0 Bft)
24.03.2018 21:00 3,4 C 73 % 1001,5 hPa 0,0 l/m N 0,00 h 0 W/m 0,0 km/h (0 Bft)
24.03.2018 22:00 2,4 C 78 % 1001,7 hPa 0,0 l/m N 0,00 h 0 W/m 0,0 km/h (0 Bft)
24.03.2018 23:00 1,3 C 82 % 1001,8 hPa 0,0 l/m N 0,00 h 0 W/m 0,1 km/h (0 Bft)
25.03.2018 00:00 0,7 C 86 % 1002,0 hPa 0,0 l/m N 0,00 h 0 W/m 1,6 km/h (1 Bft)
25.03.2018 01:00 0,1 C 87 % 1002,3 hPa 0,0 l/m N 0,00 h 0 W/m 0,0 km/h (0 Bft)
25.03.2018 03:00 -0,6 C 88 % 1002,3 hPa 0,0 l/m N 0,00 h 0 W/m 0,0 km/h (0 Bft)
25.03.2018 04:00 -1,2 C 89 % 1002,4 hPa 0,0 l/m N 0,00 h 0 W/m 0,0 km/h (0 Bft)
25.03.2018 05:00 -1,7 C 90 % 1002,6 hPa 0,0 l/m N 0,00 h 0 W/m 0,0 km/h (0 Bft)
25.03.2018 06:00 -2,2 C 90 % 1002,9 hPa 0,0 l/m N 0,00 h 0 W/m 0,0 km/h (0 Bft)
25.03.2018 07:00 -2,5 C 92 % 1003,1 hPa 0,0 l/m N 0,42 h 27 W/m 0,0 km/h (0 Bft)
25.03.2018 08:00 -1,0 C 94 % 1003,6 hPa 0,0 l/m N 0,75 h 132 W/m 0,0 km/h (0 Bft)
25.03.2018 09:00 1,7 C 91 % 1004,3 hPa 0,2 l/m N 0,83 h 242 W/m 0,0 km/h (0 Bft)
25.03.2018 10:00 4,4 C 81 % 1004,7 hPa 0,0 l/m N 0,58 h 374 W/m 0,0 km/h (0 Bft)
25.03.2018 11:00 7,0 C 69 % 1004,9 hPa 0,0 l/m O-SO 0,75 h 502 W/m 0,4 km/h (0 Bft)
25.03.2018 12:00 10,0 C 58 % 1004,8 hPa 0,0 l/m SW 1,00 h 695 W/m 7,9 km/h (2 Bft)
25.03.2018 13:00 11,6 C 53 % 1004,8 hPa 0,0 l/m SW 0,92 h 672 W/m 11,7 km/h (2 Bft)
25.03.2018 14:00 12,2 C 50 % 1004,6 hPa 0,0 l/m SW 0,83 h 697 W/m 9,5 km/h (2 Bft)
25.03.2018 15:00 13,1 C 43 % 1004,3 hPa 0,0 l/m S-SW 1,00 h 627 W/m 11,3 km/h (2 Bft)
25.03.2018 16:00 13,2 C 41 % 1004,3 hPa 0,0 l/m W-SW 0,92 h 438 W/m 6,8 km/h (2 Bft)
25.03.2018 17:00 13,0 C 42 % 1004,3 hPa 0,0 l/m W 1,00 h 286 W/m 4,7 km/h (1 Bft)
25.03.2018 18:00 12,2 C 45 % 1004,6 hPa 0,0 l/m N-NO 0,25 h 86 W/m 5,1 km/h (1 Bft)
25.03.2018 19:00 10,2 C 55 % 1005,2 hPa 0,0 l/m N 0,00 h 13 W/m 0,0 km/h (0 Bft)
25.03.2018 20:00 9,2 C 60 % 1005,9 hPa 0,0 l/m N 0,00 h 0 W/m 0,0 km/h (0 Bft)
25.03.2018 21:00 8,6 C 65 % 1006,5 hPa 0,0 l/m N-NO 0,00 h 0 W/m 3,3 km/h (1 Bft)
25.03.2018 22:00 8,2 C 67 % 1006,7 hPa 0,0 l/m N-NO 0,00 h 0 W/m 4,1 km/h (1 Bft)
25.03.2018 23:00 7,4 C 68 % 1007,0 hPa 0,0 l/m N-NO 0,00 h 0 W/m 5,5 km/h (1 Bft)
Min-Datum _ 22.03.18 25.03.18 24.03.18 - - - - 20.03.18
_ Min-Zeit 06:40 16:10 05:45 - - - - 12:30
Minimum _ -7,2 C 39 % 998,7 hPa - - - - 0,0 km/h (0 Bft)
Max-Datum _ 25.03.18 22.03.18 21.03.18 22.03.18 - 20.03.18 20.03.18 22.03.18
_ Max-Zeit 15:30 07:20 20:00 21:00 - 07:30 11:20 15:00
Maximum _ 13,5 C 100 % 1026,3 hPa 0,8 l/m - 0,08 h 893 W/m 29,0 km/h
SW (5 Bft)
Durchschnitt _ 0,7 C 80 % 1011,2 hPa #2,4 l/m O-NO #36:45 h 260 W/m 7,7 km/h (2 Bft)